createdAt,value
2023-04-19T00:00:08.736Z,11.09
2023-04-19T00:03:02.285Z,11.06
2023-04-19T00:05:34.686Z,11.03
2023-04-19T00:08:07.440Z,11.02
2023-04-19T00:10:40.084Z,11.03
2023-04-19T00:13:12.708Z,11.02
2023-04-19T00:15:45.007Z,11.03
2023-04-19T00:18:17.241Z,11.01
2023-04-19T00:20:50.238Z,10.97
2023-04-19T00:23:22.699Z,10.93
2023-04-19T00:25:54.777Z,10.92
2023-04-19T00:28:27.771Z,10.87
2023-04-19T00:30:59.898Z,10.84
2023-04-19T00:33:35.420Z,10.81
2023-04-19T00:36:08.116Z,10.79
2023-04-19T00:38:40.150Z,10.80
2023-04-19T00:41:12.303Z,10.81
2023-04-19T00:43:44.401Z,10.75
2023-04-19T00:46:17.041Z,10.71
2023-04-19T00:48:51.725Z,10.70
2023-04-19T00:51:23.890Z,10.68
2023-04-19T00:53:56.363Z,10.66
2023-04-19T00:56:36.142Z,10.64
2023-04-19T00:59:09.997Z,10.61
2023-04-19T01:01:42.793Z,10.61
2023-04-19T01:04:15.165Z,10.61
2023-04-19T01:06:48.017Z,10.61
2023-04-19T01:09:20.110Z,10.58
2023-04-19T01:11:54.229Z,10.57
2023-04-19T01:14:26.253Z,10.57
2023-04-19T01:16:59.712Z,10.56
2023-04-19T01:19:32.131Z,10.53
2023-04-19T01:22:04.303Z,10.48
2023-04-19T01:24:36.919Z,10.45
2023-04-19T01:27:08.997Z,10.45
2023-04-19T01:29:41.302Z,10.42
2023-04-19T01:32:14.141Z,10.38
2023-04-19T01:34:46.245Z,10.34
2023-04-19T01:37:20.474Z,10.32
2023-04-19T01:39:52.557Z,10.29
2023-04-19T01:42:24.766Z,10.25
2023-04-19T01:44:57.842Z,10.22
2023-04-19T01:47:31.497Z,10.17
2023-04-19T01:50:03.625Z,10.19
2023-04-19T01:52:35.703Z,10.19
2023-04-19T01:55:08.482Z,10.20
2023-04-19T01:57:40.956Z,10.23
2023-04-19T02:00:15.293Z,10.20
2023-04-19T02:02:47.587Z,10.16
2023-04-19T02:05:21.111Z,10.14
2023-04-19T02:07:53.990Z,10.15
2023-04-19T02:10:26.579Z,10.12
2023-04-19T02:12:58.705Z,10.08
2023-04-19T02:15:33.797Z,10.02
2023-04-19T02:18:06.997Z,9.98
2023-04-19T02:20:39.379Z,9.98
2023-04-19T02:23:11.431Z,9.97
2023-04-19T02:25:44.315Z,9.94
2023-04-19T02:28:16.313Z,9.93
2023-04-19T02:30:48.521Z,9.92
2023-04-19T02:33:24.947Z,9.90
2023-04-19T02:35:57.086Z,9.86
2023-04-19T02:38:29.094Z,9.81
2023-04-19T02:41:01.822Z,9.78
2023-04-19T02:43:34.845Z,9.76
2023-04-19T02:46:07.189Z,9.72
2023-04-19T02:48:39.224Z,9.70
2023-04-19T02:51:15.720Z,9.66
2023-04-19T02:53:48.329Z,9.64
2023-04-19T02:56:20.447Z,9.59
2023-04-19T02:58:54.559Z,9.53
2023-04-19T03:01:26.827Z,9.49
2023-04-19T03:04:02.145Z,9.47
2023-04-19T03:06:34.772Z,9.47
2023-04-19T03:09:07.218Z,9.46
2023-04-19T03:11:39.411Z,9.45
2023-04-19T03:14:11.702Z,9.44
2023-04-19T03:16:43.842Z,9.43
2023-04-19T03:19:16.038Z,9.41
2023-04-19T03:21:55.747Z,9.39
2023-04-19T03:24:32.041Z,9.39
2023-04-19T03:27:10.213Z,9.36
2023-04-19T03:29:44.283Z,9.36
2023-04-19T03:32:17.361Z,9.35
2023-04-19T03:34:49.522Z,9.36
2023-04-19T03:37:23.141Z,9.34
2023-04-19T03:39:55.495Z,9.29
2023-04-19T03:42:32.551Z,9.24
2023-04-19T03:45:13.128Z,9.22
2023-04-19T03:47:51.490Z,9.25
2023-04-19T03:50:23.752Z,9.23
2023-04-19T03:52:56.640Z,9.22
2023-04-19T03:55:28.878Z,9.20
2023-04-19T03:58:01.365Z,9.16
2023-04-19T04:00:56.255Z,9.11
2023-04-19T04:03:29.139Z,9.07
2023-04-19T04:06:02.118Z,9.03
2023-04-19T04:08:36.489Z,9.01
2023-04-19T04:11:08.719Z,8.98
2023-04-19T04:13:41.166Z,8.97
2023-04-19T04:16:18.037Z,9.00
2023-04-19T04:18:50.409Z,9.01
2023-04-19T04:21:24.312Z,8.99
2023-04-19T04:23:57.552Z,8.94
2023-04-19T04:26:39.560Z,8.93
2023-04-19T04:29:38.152Z,8.89
2023-04-19T04:32:11.496Z,8.86
2023-04-19T04:34:45.693Z,8.84
2023-04-19T04:37:22.809Z,8.83
2023-04-19T04:39:55.095Z,8.81
2023-04-19T04:42:27.897Z,8.75
2023-04-19T04:45:01.753Z,8.71
2023-04-19T04:47:35.863Z,8.66
2023-04-19T04:50:12.670Z,8.61
2023-04-19T04:52:44.699Z,8.58
2023-04-19T04:55:22.353Z,8.55
2023-04-19T04:57:54.457Z,8.52
2023-04-19T05:00:32.575Z,8.46
2023-04-19T05:03:09.785Z,8.42
2023-04-19T05:05:47.590Z,8.38
2023-04-19T05:08:19.805Z,8.35
2023-04-19T05:10:52.632Z,8.33
2023-04-19T05:13:26.327Z,8.29
2023-04-19T05:16:00.002Z,8.26
2023-04-19T05:18:32.724Z,8.25
2023-04-19T05:21:06.951Z,8.26
2023-04-19T05:23:39.872Z,8.23
2023-04-19T05:26:15.463Z,8.16
2023-04-19T05:28:48.267Z,8.12
2023-04-19T05:31:34.472Z,8.13
2023-04-19T05:34:27.087Z,8.14
2023-04-19T05:37:00.586Z,8.17
2023-04-19T05:39:32.743Z,8.19
2023-04-19T05:42:05.090Z,8.22
2023-04-19T05:44:37.274Z,8.23
2023-04-19T05:47:10.054Z,8.24
2023-04-19T05:50:00.930Z,8.26
2023-04-19T05:52:37.258Z,8.30
2023-04-19T05:55:15.622Z,8.33
2023-04-19T05:57:49.670Z,8.37
2023-04-19T06:00:24.232Z,8.44
2023-04-19T06:03:00.578Z,8.48
2023-04-19T06:05:33.149Z,8.54
2023-04-19T06:08:05.677Z,8.58
2023-04-19T06:10:51.837Z,8.62
2023-04-19T06:13:27.681Z,8.65
2023-04-19T06:16:00.399Z,8.68
2023-04-19T06:18:32.741Z,8.70
2023-04-19T06:21:06.455Z,8.68
2023-04-19T06:23:38.674Z,8.69
2023-04-19T06:26:14.352Z,8.77
2023-04-19T06:28:46.405Z,8.77
2023-04-19T06:31:18.565Z,8.75
2023-04-19T06:33:50.892Z,8.70
2023-04-19T06:36:23.286Z,8.60
2023-04-19T06:42:42.702Z,8.37
2023-04-19T06:45:17.290Z,8.29
2023-04-19T06:52:11.237Z,8.16
2023-04-19T06:54:43.331Z,8.17
2023-04-19T07:01:52.010Z,8.03
2023-04-19T07:04:30.486Z,7.98
2023-04-19T07:07:48.937Z,7.92
2023-04-19T07:11:02.015Z,7.89
2023-04-19T07:18:45.345Z,7.68
2023-04-19T07:21:19.236Z,7.63
2023-04-19T07:23:51.466Z,7.58
2023-04-19T07:26:30.168Z,7.52
2023-04-19T07:33:33.093Z,7.48
2023-04-19T07:36:12.679Z,7.42
2023-04-19T07:38:44.866Z,7.42
2023-04-19T07:41:51.270Z,7.41
2023-04-19T07:44:23.609Z,7.36
2023-04-19T07:51:29.835Z,7.27
2023-04-19T07:54:10.688Z,7.26
2023-04-19T08:02:01.356Z,7.20
2023-04-19T08:04:35.764Z,7.23
2023-04-19T08:15:03.785Z,7.25
2023-04-19T08:22:22.613Z,7.23
2023-04-19T08:29:06.142Z,7.16
2023-04-19T08:32:21.936Z,7.12
2023-04-19T08:35:01.135Z,7.15
2023-04-19T08:37:33.415Z,7.19
2023-04-19T08:41:01.792Z,7.24
2023-04-19T08:52:51.854Z,7.32
2023-04-19T08:56:24.058Z,7.39
2023-04-19T09:00:02.792Z,7.48
2023-04-19T09:06:39.116Z,7.55
2023-04-19T09:12:31.868Z,7.57
2023-04-19T09:15:11.883Z,7.59
2023-04-19T09:22:16.614Z,7.50
2023-04-19T09:28:16.793Z,7.47
2023-04-19T09:31:02.298Z,7.46
2023-04-19T09:38:01.372Z,7.55
2023-04-19T09:52:23.989Z,7.73
2023-04-19T09:55:11.392Z,7.78
2023-04-19T09:57:50.493Z,7.82
2023-04-19T10:00:41.788Z,7.84
2023-04-19T10:04:50.453Z,7.96
2023-04-19T10:07:31.016Z,8.05
2023-04-19T10:14:33.374Z,8.14
2023-04-19T10:17:39.297Z,8.19
2023-04-19T10:36:18.728Z,8.27
2023-04-19T10:39:54.495Z,8.25
2023-04-19T10:47:09.586Z,8.27
2023-04-19T10:54:50.991Z,8.25
2023-04-19T10:57:28.127Z,8.26
2023-04-19T11:00:21.927Z,8.27
2023-04-19T11:03:01.344Z,8.29
2023-04-19T11:13:50.088Z,8.31
2023-04-19T11:16:31.136Z,8.36
2023-04-19T11:19:30.060Z,8.41
2023-04-19T11:22:02.600Z,8.42
2023-04-19T11:24:36.200Z,8.45
2023-04-19T11:39:41.181Z,8.67
2023-04-19T11:46:33.209Z,8.76
2023-04-19T11:57:45.006Z,8.77
2023-04-19T12:00:34.838Z,8.75
2023-04-19T12:03:08.930Z,8.75
2023-04-19T12:05:41.737Z,8.80
2023-04-19T12:17:35.321Z,8.96
2023-04-19T12:20:12.446Z,8.97
2023-04-19T12:23:23.434Z,8.98
2023-04-19T12:29:50.962Z,8.94
2023-04-19T12:32:23.176Z,8.91
2023-04-19T12:43:38.820Z,8.92
2023-04-19T12:46:11.156Z,8.94
2023-04-19T12:56:26.853Z,9.04
2023-04-19T12:58:59.003Z,9.07
2023-04-19T13:05:56.578Z,9.09
2023-04-19T13:08:44.228Z,9.05
2023-04-19T13:11:23.487Z,9.02
2023-04-19T13:15:08.149Z,9.02
2023-04-19T13:17:46.956Z,9.05
2023-04-19T13:20:45.471Z,9.00
2023-04-19T13:30:59.228Z,9.00
2023-04-19T13:33:54.113Z,8.99
2023-04-19T13:36:26.228Z,8.96
2023-04-19T13:39:20.901Z,8.97
2023-04-19T13:45:40.595Z,9.07
2023-04-19T13:48:13.171Z,9.09
2023-04-19T13:55:18.076Z,9.01
2023-04-19T14:02:23.114Z,9.02
2023-04-19T14:05:01.849Z,9.06
2023-04-19T14:15:56.674Z,9.03
2023-04-19T14:19:07.948Z,8.99
2023-04-19T14:21:40.012Z,8.92
2023-04-19T14:28:45.083Z,8.83
2023-04-19T14:35:49.159Z,8.76
2023-04-19T14:38:21.239Z,8.72
2023-04-19T14:40:53.424Z,8.67
2023-04-19T14:43:26.254Z,8.66
2023-04-19T14:51:03.755Z,8.64
2023-04-19T14:53:36.035Z,8.64
2023-04-19T14:56:18.154Z,8.63
2023-04-19T14:59:35.322Z,8.60
2023-04-19T15:02:14.282Z,8.53
2023-04-19T15:04:46.600Z,8.49
2023-04-19T15:07:18.824Z,8.46
2023-04-19T15:09:50.809Z,8.42
2023-04-19T15:12:22.865Z,8.40
2023-04-19T15:14:54.883Z,8.39
2023-04-19T15:17:26.968Z,8.40
2023-04-19T15:19:59.766Z,8.41
2023-04-19T15:22:31.918Z,8.41
2023-04-19T15:25:04.800Z,8.39
2023-04-19T15:27:36.805Z,8.38
2023-04-19T15:30:12.456Z,8.38
2023-04-19T15:32:44.890Z,8.38
2023-04-19T15:35:17.042Z,8.37
2023-04-19T15:37:50.092Z,8.36
2023-04-19T15:40:24.512Z,8.35
2023-04-19T15:42:56.748Z,8.33
2023-04-19T15:45:29.919Z,8.31
2023-04-19T15:48:02.117Z,8.30
2023-04-19T15:50:34.312Z,8.30
2023-04-19T15:53:08.920Z,8.30
2023-04-19T15:55:41.836Z,8.31
2023-04-19T15:58:13.889Z,8.34
2023-04-19T16:00:45.989Z,8.35
2023-04-19T16:03:18.162Z,8.35
2023-04-19T16:05:53.919Z,8.36
2023-04-19T16:08:26.182Z,8.37
2023-04-19T16:10:58.357Z,8.39
2023-04-19T16:13:31.564Z,8.39
2023-04-19T16:16:04.016Z,8.40
2023-04-19T16:18:36.212Z,8.39
2023-04-19T16:21:08.772Z,8.39
2023-04-19T16:23:42.070Z,8.37
2023-04-19T16:26:14.430Z,8.33
2023-04-19T16:28:46.518Z,8.32
2023-04-19T16:31:19.312Z,8.33
2023-04-19T16:33:51.391Z,8.35
2023-04-19T16:36:23.520Z,8.36
2023-04-19T16:38:56.013Z,8.39
2023-04-19T16:41:28.219Z,8.36
2023-04-19T16:44:00.270Z,8.35
2023-04-19T16:46:32.528Z,8.38
2023-04-19T16:52:11.720Z,8.39
2023-04-19T16:54:44.809Z,8.34
2023-04-19T16:57:16.953Z,8.32
2023-04-19T16:59:49.141Z,8.32
2023-04-19T17:02:21.739Z,8.32
2023-04-19T17:04:53.976Z,8.32
2023-04-19T17:07:26.729Z,8.28
2023-04-19T17:09:58.999Z,8.26
2023-04-19T17:12:31.123Z,8.26
2023-04-19T17:15:03.358Z,8.28
2023-04-19T17:17:35.636Z,8.30
2023-04-19T17:20:10.037Z,8.29
2023-04-19T17:22:42.497Z,8.27
2023-04-19T17:25:14.557Z,8.25
2023-04-19T17:27:46.815Z,8.25
2023-04-19T17:30:19.063Z,8.25
2023-04-19T17:32:51.670Z,8.24
2023-04-19T17:35:23.962Z,8.22
2023-04-19T17:37:56.079Z,8.20
2023-04-19T17:40:29.424Z,8.17
2023-04-19T17:43:02.097Z,8.16
2023-04-19T17:45:34.245Z,8.15
2023-04-19T17:48:07.109Z,8.14
2023-04-19T17:50:39.485Z,8.15
2023-04-19T17:53:11.695Z,8.14
2023-04-19T17:55:43.970Z,8.13
2023-04-19T17:58:16.362Z,8.11
2023-04-19T18:00:48.986Z,8.10
2023-04-19T18:03:21.156Z,8.11
2023-04-19T18:05:53.449Z,8.12
2023-04-19T18:08:25.672Z,8.11
2023-04-19T18:10:57.759Z,8.14
2023-04-19T18:13:30.794Z,8.14
2023-04-19T18:16:05.110Z,8.14
2023-04-19T18:18:37.237Z,8.13
2023-04-19T18:21:09.793Z,8.11
2023-04-19T18:23:41.939Z,8.09
2023-04-19T18:26:14.311Z,8.06
2023-04-19T18:28:46.731Z,8.03
2023-04-19T18:31:18.794Z,8.01
2023-04-19T18:33:51.156Z,8.00
2023-04-19T18:36:23.970Z,7.99
2023-04-19T18:38:56.168Z,7.95
2023-04-19T18:41:31.682Z,7.92
2023-04-19T18:46:38.719Z,7.82
2023-04-19T18:49:12.978Z,7.79
2023-04-19T18:51:45.205Z,7.77
2023-04-19T18:57:23.506Z,7.67
2023-04-19T18:59:59.616Z,7.61
2023-04-19T19:02:34.117Z,7.56
2023-04-19T19:05:08.554Z,7.52
2023-04-19T19:07:41.795Z,7.49
2023-04-19T19:10:19.398Z,7.46
2023-04-19T19:12:53.689Z,7.43
2023-04-19T19:15:25.976Z,7.43
2023-04-19T19:17:58.024Z,7.44
2023-04-19T19:20:31.084Z,7.46
2023-04-19T19:23:03.346Z,7.44
2023-04-19T19:25:35.520Z,7.42
2023-04-19T19:28:10.041Z,7.43
2023-04-19T19:30:44.980Z,7.44
2023-04-19T19:33:18.103Z,7.43
2023-04-19T19:35:50.162Z,7.44
2023-04-19T19:38:22.249Z,7.45
2023-04-19T19:41:34.656Z,7.47
2023-04-19T19:43:46.374Z,7.51
2023-04-19T19:46:18.620Z,7.51
2023-04-19T19:48:53.472Z,7.55
2023-04-19T19:51:53.197Z,7.59
2023-04-19T19:54:21.164Z,7.63
2023-04-19T19:57:39.121Z,7.68
2023-04-19T19:59:51.363Z,7.72
2023-04-19T20:02:25.024Z,7.72
2023-04-19T20:04:57.437Z,7.73
2023-04-19T20:07:53.453Z,7.74
2023-04-19T20:10:21.697Z,7.74
2023-04-19T20:15:30.200Z,7.76
2023-04-19T20:18:02.400Z,7.76
2023-04-19T20:20:34.442Z,7.76
2023-04-19T20:23:06.784Z,7.74
2023-04-19T20:25:39.722Z,7.75
2023-04-19T20:28:12.718Z,7.74
2023-04-19T20:30:44.851Z,7.73
2023-04-19T20:33:17.085Z,7.73
2023-04-19T20:35:53.638Z,7.70
2023-04-19T20:38:26.658Z,7.69
2023-04-19T20:41:00.588Z,7.70
2023-04-19T20:43:32.974Z,7.70
2023-04-19T20:46:07.354Z,7.71
2023-04-19T20:48:39.475Z,7.71
2023-04-19T20:51:12.774Z,7.70
2023-04-19T20:53:44.839Z,7.68
2023-04-19T20:56:16.909Z,7.69
2023-04-19T20:58:48.970Z,7.69
2023-04-19T21:01:23.801Z,7.70
2023-04-19T21:03:56.774Z,7.73
2023-04-19T21:06:29.001Z,7.75
2023-04-19T21:09:01.130Z,7.75
2023-04-19T21:11:33.198Z,7.75
2023-04-19T21:14:05.305Z,7.74
2023-04-19T21:16:37.957Z,7.72
2023-04-19T21:19:10.182Z,7.70
2023-04-19T21:21:42.198Z,7.68
2023-04-19T21:24:14.306Z,7.68
2023-04-19T21:26:46.445Z,7.69
2023-04-19T21:29:18.910Z,7.71
2023-04-19T21:31:51.344Z,7.69
2023-04-19T21:34:24.094Z,7.67
2023-04-19T21:36:56.140Z,7.66
2023-04-19T21:39:28.301Z,7.67
2023-04-19T21:42:00.433Z,7.68
2023-04-19T21:44:32.532Z,7.68
2023-04-19T21:47:04.768Z,7.68
2023-04-19T21:49:37.148Z,7.64
2023-04-19T21:52:11.359Z,7.63
2023-04-19T21:54:43.461Z,7.62
2023-04-19T21:57:17.604Z,7.61
2023-04-19T21:59:53.103Z,7.62
2023-04-19T22:02:25.342Z,7.66
2023-04-19T22:05:00.381Z,7.69
2023-04-19T22:07:32.505Z,7.68
2023-04-19T22:10:05.894Z,7.68
2023-04-19T22:12:48.057Z,7.66
2023-04-19T22:15:28.049Z,7.64
2023-04-19T22:18:03.418Z,7.64
2023-04-19T22:20:36.015Z,7.60
2023-04-19T22:23:08.459Z,7.57
2023-04-19T22:25:41.144Z,7.57
2023-04-19T22:28:13.400Z,7.57
2023-04-19T22:30:45.635Z,7.57
2023-04-19T22:33:17.733Z,7.60
2023-04-19T22:35:49.948Z,7.59
2023-04-19T22:38:25.013Z,7.58
2023-04-19T22:40:57.381Z,7.59
2023-04-19T22:43:29.438Z,7.58
2023-04-19T22:46:01.718Z,7.58
2023-04-19T22:48:35.045Z,7.57
2023-04-19T22:51:07.516Z,7.58
2023-04-19T22:53:40.791Z,7.53
2023-04-19T22:56:13.214Z,7.50
2023-04-19T22:58:45.317Z,7.51
2023-04-19T23:01:17.672Z,7.54
2023-04-19T23:03:49.764Z,7.53
2023-04-19T23:06:21.773Z,7.54
2023-04-19T23:08:54.709Z,7.55
2023-04-19T23:11:29.885Z,7.53
2023-04-19T23:14:02.062Z,7.52
2023-04-19T23:16:34.546Z,7.54
2023-04-19T23:19:07.754Z,7.56
2023-04-19T23:21:40.525Z,7.60
2023-04-19T23:24:12.780Z,7.61
2023-04-19T23:26:44.809Z,7.62
2023-04-19T23:29:18.694Z,7.63
2023-04-19T23:31:52.642Z,7.62
2023-04-19T23:34:25.039Z,7.63
2023-04-19T23:36:57.613Z,7.63
2023-04-19T23:39:29.721Z,7.65
2023-04-19T23:42:02.217Z,7.66
2023-04-19T23:44:34.244Z,7.65
2023-04-19T23:47:06.473Z,7.67
2023-04-19T23:49:38.603Z,7.70
2023-04-19T23:52:11.567Z,7.72
2023-04-19T23:54:44.005Z,7.70
2023-04-19T23:57:16.203Z,7.67
2023-04-19T23:59:48.368Z,7.68
